Stickney, South Dakota
Current Conditions -  °F | °C
As of 8:25 AM on Sunday 21 Dec 2014 (Local Time) from KMHE Reporting Station
Moderate Fog Moderate Fog  
Wind Chill: 20°   Ceiling: 200
Heat Index: 31°   Visibility: 0.5mi
Dew Point: 31°   Wind: 15mph
Humidity: 100%   Direction: 150°SSE
Pressure: 29.72"   Gusts: NA
Location:  43.59°N, 98.44°W
Report Text: KMHE 211425Z AUTO 15013KT 1/2SM FZFG OVC002 M01/M01 A2972 RMK AO2 FZRAE02 P0000 I1000 T10061006
Loading
Personal Weather Stations






























Interactive Weather Map New forecast layout! Learn more

10-Day Weather Forecast

Advertisements
Track Severe Weather on mobile